sensor_id;sensor_type;location;lat;lon;timestamp;pressure;altitude;pressure_sealevel;temperature;humidity
53270;BME280;39159;45.634;9.420;2023-08-30T00:01:48;97760.16;;;17.31;100.00
53270;BME280;39159;45.634;9.420;2023-08-30T00:04:14;97757.41;;;17.28;100.00
53270;BME280;39159;45.634;9.420;2023-08-30T00:06:39;97761.31;;;17.27;100.00
53270;BME280;39159;45.634;9.420;2023-08-30T00:09:05;97762.03;;;17.16;100.00
53270;BME280;39159;45.634;9.420;2023-08-30T00:11:30;97760.38;;;17.08;100.00
53270;BME280;39159;45.634;9.420;2023-08-30T00:14:05;97757.59;;;17.05;100.00
53270;BME280;39159;45.634;9.420;2023-08-30T00:16:35;97756.38;;;17.02;100.00
53270;BME280;39159;45.634;9.420;2023-08-30T00:19:01;97765.78;;;16.97;100.00
53270;BME280;39159;45.634;9.420;2023-08-30T00:21:26;97758.28;;;16.94;100.00
53270;BME280;39159;45.634;9.420;2023-08-30T00:23:53;97757.16;;;16.99;100.00
53270;BME280;39159;45.634;9.420;2023-08-30T00:26:18;97763.09;;;17.01;100.00
53270;BME280;39159;45.634;9.420;2023-08-30T00:28:43;97764.25;;;17.00;100.00
53270;BME280;39159;45.634;9.420;2023-08-30T00:31:09;97755.19;;;16.99;100.00
53270;BME280;39159;45.634;9.420;2023-08-30T00:33:34;97760.75;;;17.07;100.00
53270;BME280;39159;45.634;9.420;2023-08-30T00:36:00;97758.41;;;17.09;100.00
53270;BME280;39159;45.634;9.420;2023-08-30T00:38:27;97760.84;;;17.17;100.00
53270;BME280;39159;45.634;9.420;2023-08-30T00:40:53;97762.06;;;17.20;100.00
53270;BME280;39159;45.634;9.420;2023-08-30T00:43:21;97759.28;;;17.20;100.00
53270;BME280;39159;45.634;9.420;2023-08-30T00:45:47;97763.97;;;17.16;100.00
53270;BME280;39159;45.634;9.420;2023-08-30T00:48:14;97756.91;;;17.18;100.00
53270;BME280;39159;45.634;9.420;2023-08-30T00:50:42;97760.47;;;17.19;100.00
53270;BME280;39159;45.634;9.420;2023-08-30T00:53:08;97754.16;;;17.18;100.00
53270;BME280;39159;45.634;9.420;2023-08-30T00:55:37;97753.03;;;17.23;100.00
53270;BME280;39159;45.634;9.420;2023-08-30T00:58:03;97758.56;;;17.27;100.00
53270;BME280;39159;45.634;9.420;2023-08-30T01:00:29;97756.94;;;17.22;100.00
53270;BME280;39159;45.634;9.420;2023-08-30T01:02:56;97761.78;;;17.32;100.00
53270;BME280;39159;45.634;9.420;2023-08-30T01:05:22;97763.38;;;17.40;100.00
53270;BME280;39159;45.634;9.420;2023-08-30T01:07:49;97767.38;;;17.43;100.00
53270;BME280;39159;45.634;9.420;2023-08-30T01:10:14;97757.09;;;17.40;100.00
53270;BME280;39159;45.634;9.420;2023-08-30T01:12:44;97766.97;;;17.41;100.00
53270;BME280;39159;45.634;9.420;2023-08-30T01:15:13;97764.94;;;17.34;98.92
53270;BME280;39159;45.634;9.420;2023-08-30T01:17:42;97761.00;;;17.35;98.53
53270;BME280;39159;45.634;9.420;2023-08-30T01:20:12;97762.97;;;17.35;94.77
53270;BME280;39159;45.634;9.420;2023-08-30T01:27:57;97767.63;;;17.27;89.61
53270;BME280;39159;45.634;9.420;2023-08-30T01:30:24;97763.28;;;17.26;88.43
53270;BME280;39159;45.634;9.420;2023-08-30T01:32:52;97759.28;;;17.20;90.41
53270;BME280;39159;45.634;9.420;2023-08-30T01:35:18;97762.88;;;17.24;92.46
53270;BME280;39159;45.634;9.420;2023-08-30T01:37:46;97768.41;;;17.24;92.75
53270;BME280;39159;45.634;9.420;2023-08-30T01:40:13;97754.16;;;17.18;95.41
53270;BME280;39159;45.634;9.420;2023-08-30T01:42:40;97754.97;;;17.19;97.79
53270;BME280;39159;45.634;9.420;2023-08-30T01:45:08;97752.16;;;17.15;100.00
53270;BME280;39159;45.634;9.420;2023-08-30T01:47:36;97754.94;;;17.15;100.00
53270;BME280;39159;45.634;9.420;2023-08-30T01:50:02;97762.00;;;17.13;100.00
53270;BME280;39159;45.634;9.420;2023-08-30T01:52:29;97754.50;;;17.13;100.00
53270;BME280;39159;45.634;9.420;2023-08-30T01:54:57;97752.94;;;17.12;100.00
53270;BME280;39159;45.634;9.420;2023-08-30T01:57:23;97753.34;;;17.14;100.00
53270;BME280;39159;45.634;9.420;2023-08-30T01:59:48;97755.28;;;17.14;100.00
53270;BME280;39159;45.634;9.420;2023-08-30T02:02:14;97756.47;;;17.13;100.00
53270;BME280;39159;45.634;9.420;2023-08-30T02:04:39;97758.06;;;17.14;100.00
53270;BME280;39159;45.634;9.420;2023-08-30T02:07:33;97760.84;;;17.17;100.00
53270;BME280;39159;45.634;9.420;2023-08-30T02:10:01;97759.66;;;17.18;100.00
53270;BME280;39159;45.634;9.420;2023-08-30T02:12:43;97760.50;;;17.23;100.00
53270;BME280;39159;45.634;9.420;2023-08-30T02:15:12;97758.94;;;17.22;100.00
53270;BME280;39159;45.634;9.420;2023-08-30T02:17:38;97760.91;;;17.25;100.00
53270;BME280;39159;45.634;9.420;2023-08-30T02:20:06;97754.97;;;17.23;100.00
53270;BME280;39159;45.634;9.420;2023-08-30T02:22:32;97756.16;;;17.22;100.00
53270;BME280;39159;45.634;9.420;2023-08-30T02:24:59;97757.31;;;17.20;100.00
53270;BME280;39159;45.634;9.420;2023-08-30T02:27:24;97753.41;;;17.22;100.00
53270;BME280;39159;45.634;9.420;2023-08-30T02:29:50;97753.81;;;17.24;100.00
53270;BME280;39159;45.634;9.420;2023-08-30T02:32:15;97759.34;;;17.27;100.00
53270;BME280;39159;45.634;9.420;2023-08-30T02:34:47;97760.56;;;17.30;100.00
53270;BME280;39159;45.634;9.420;2023-08-30T02:37:12;97758.94;;;17.25;100.00
53270;BME280;39159;45.634;9.420;2023-08-30T02:39:38;97763.28;;;17.26;100.00
53270;BME280;39159;45.634;9.420;2023-08-30T02:42:03;97764.06;;;17.27;100.00
53270;BME280;39159;45.634;9.420;2023-08-30T02:44:29;97750.28;;;17.27;100.00
53270;BME280;39159;45.634;9.420;2023-08-30T02:46:54;97755.44;;;17.28;100.00
53270;BME280;39159;45.634;9.420;2023-08-30T02:49:19;97752.25;;;17.26;100.00
53270;BME280;39159;45.634;9.420;2023-08-30T02:51:45;97744.75;;;17.23;100.00
53270;BME280;39159;45.634;9.420;2023-08-30T02:54:10;97753.47;;;17.29;100.00
53270;BME280;39159;45.634;9.420;2023-08-30T02:56:38;97749.13;;;17.28;100.00
53270;BME280;39159;45.634;9.420;2023-08-30T02:59:03;97748.31;;;17.27;100.00
53270;BME280;39159;45.634;9.420;2023-08-30T03:01:28;97738.09;;;17.28;100.00
53270;BME280;39159;45.634;9.420;2023-08-30T03:03:54;97741.28;;;17.30;100.00
53270;BME280;39159;45.634;9.420;2023-08-30T03:06:19;97740.09;;;17.31;100.00
53270;BME280;39159;45.634;9.420;2023-08-30T03:08:45;97741.66;;;17.32;100.00
53270;BME280;39159;45.634;9.420;2023-08-30T03:11:11;97745.25;;;17.36;100.00
53270;BME280;39159;45.634;9.420;2023-08-30T03:13:37;97740.50;;;17.33;100.00
53270;BME280;39159;45.634;9.420;2023-08-30T03:16:13;97748.81;;;17.36;100.00
53270;BME280;39159;45.634;9.420;2023-08-30T03:18:39;97744.06;;;17.37;100.00
53270;BME280;39159;45.634;9.420;2023-08-30T03:21:05;97737.75;;;17.33;100.00
53270;BME280;39159;45.634;9.420;2023-08-30T03:23:31;97734.59;;;17.34;100.00
53270;BME280;39159;45.634;9.420;2023-08-30T03:25:58;97739.31;;;17.34;99.72
53270;BME280;39159;45.634;9.420;2023-08-30T03:28:23;97732.25;;;17.36;99.67
53270;BME280;39159;45.634;9.420;2023-08-30T03:30:49;97742.88;;;17.38;99.09
53270;BME280;39159;45.634;9.420;2023-08-30T03:33:14;97734.25;;;17.39;99.05
53270;BME280;39159;45.634;9.420;2023-08-30T03:35:39;97737.41;;;17.42;98.12
53270;BME280;39159;45.634;9.420;2023-08-30T03:38:05;97745.72;;;17.49;98.59
53270;BME280;39159;45.634;9.420;2023-08-30T03:40:31;97744.56;;;17.53;98.08
53270;BME280;39159;45.634;9.420;2023-08-30T03:42:56;97748.13;;;17.50;97.07
53270;BME280;39159;45.634;9.420;2023-08-30T03:45:22;97743.34;;;17.47;98.32
53270;BME280;39159;45.634;9.420;2023-08-30T03:47:47;97748.88;;;17.47;97.82
53270;BME280;39159;45.634;9.420;2023-08-30T03:50:13;97746.91;;;17.48;97.21
53270;BME280;39159;45.634;9.420;2023-08-30T03:52:38;97751.66;;;17.51;97.54
53270;BME280;39159;45.634;9.420;2023-08-30T03:55:04;97755.97;;;17.48;97.05
53270;BME280;39159;45.634;9.420;2023-08-30T03:57:29;97754.81;;;17.53;96.33
53270;BME280;39159;45.634;9.420;2023-08-30T03:59:55;97756.69;;;17.38;100.00
53270;BME280;39159;45.634;9.420;2023-08-30T04:02:20;97755.47;;;17.35;100.00
53270;BME280;39159;45.634;9.420;2023-08-30T04:04:49;97762.09;;;17.27;100.00
53270;BME280;39159;45.634;9.420;2023-08-30T04:07:15;97757.41;;;17.28;100.00
53270;BME280;39159;45.634;9.420;2023-08-30T04:09:40;97768.41;;;17.24;100.00
53270;BME280;39159;45.634;9.420;2023-08-30T04:12:06;97764.41;;;17.18;100.00
53270;BME280;39159;45.634;9.420;2023-08-30T04:14:32;97759.66;;;17.15;100.00
53270;BME280;39159;45.634;9.420;2023-08-30T04:16:57;97772.97;;;17.09;100.00
53270;BME280;39159;45.634;9.420;2023-08-30T04:19:23;97760.38;;;17.08;100.00
53270;BME280;39159;45.634;9.420;2023-08-30T04:21:48;97765.84;;;17.01;100.00
53270;BME280;39159;45.634;9.420;2023-08-30T04:24:14;97765.84;;;17.05;100.00
53270;BME280;39159;45.634;9.420;2023-08-30T04:26:40;97767.44;;;17.06;100.00
53270;BME280;39159;45.634;9.420;2023-08-30T04:29:06;97766.25;;;17.03;100.00
53270;BME280;39159;45.634;9.420;2023-08-30T04:31:31;97771.34;;;17.01;100.00
53270;BME280;39159;45.634;9.420;2023-08-30T04:33:57;97768.59;;;17.05;100.00
53270;BME280;39159;45.634;9.420;2023-08-30T04:36:22;97763.91;;;17.05;100.00
53270;BME280;39159;45.634;9.420;2023-08-30T04:38:48;97760.75;;;17.07;100.00
53270;BME280;39159;45.634;9.420;2023-08-30T04:41:13;97760.38;;;17.08;100.00
53270;BME280;39159;45.634;9.420;2023-08-30T04:43:39;97762.31;;;17.04;100.00
53270;BME280;39159;45.634;9.420;2023-08-30T04:46:04;97765.44;;;17.03;100.00
53270;BME280;39159;45.634;9.420;2023-08-30T04:48:30;97764.63;;;16.98;100.00
53270;BME280;39159;45.634;9.420;2023-08-30T04:51:02;97771.31;;;16.97;100.00
53270;BME280;39159;45.634;9.420;2023-08-30T04:53:28;97773.28;;;17.01;100.00
53270;BME280;39159;45.634;9.420;2023-08-30T04:55:54;97775.69;;;17.02;100.00
53270;BME280;39159;45.634;9.420;2023-08-30T04:58:20;97777.28;;;17.03;100.00
53270;BME280;39159;45.634;9.420;2023-08-30T05:00:45;97777.28;;;17.07;100.00
53270;BME280;39159;45.634;9.420;2023-08-30T05:03:10;97783.25;;;17.12;100.00
53270;BME280;39159;45.634;9.420;2023-08-30T05:05:36;97781.25;;;17.09;100.00
53270;BME280;39159;45.634;9.420;2023-08-30T05:08:02;97785.16;;;17.05;100.00
53270;BME280;39159;45.634;9.420;2023-08-30T05:10:27;97785.59;;;17.10;100.00
53270;BME280;39159;45.634;9.420;2023-08-30T05:12:53;97786.44;;;17.14;100.00
53270;BME280;39159;45.634;9.420;2023-08-30T05:15:18;97787.59;;;17.13;100.00
53270;BME280;39159;45.634;9.420;2023-08-30T05:17:44;97790.34;;;17.13;100.00
53270;BME280;39159;45.634;9.420;2023-08-30T05:20:09;97790.75;;;17.15;100.00
53270;BME280;39159;45.634;9.420;2023-08-30T05:22:35;97787.97;;;17.12;100.00
53270;BME280;39159;45.634;9.420;2023-08-30T05:25:00;97794.63;;;17.07;100.00
53270;BME280;39159;45.634;9.420;2023-08-30T05:27:27;97798.19;;;17.08;100.00
53270;BME280;39159;45.634;9.420;2023-08-30T05:29:52;97800.53;;;17.06;100.00
53270;BME280;39159;45.634;9.420;2023-08-30T05:32:18;97804.03;;;17.03;100.00
53270;BME280;39159;45.634;9.420;2023-08-30T05:34:43;97802.88;;;17.04;100.00
53270;BME280;39159;45.634;9.420;2023-08-30T05:37:09;97807.19;;;17.01;100.00
53270;BME280;39159;45.634;9.420;2023-08-30T05:39:35;97808.72;;;16.98;100.00
53270;BME280;39159;45.634;9.420;2023-08-30T05:42:00;97803.19;;;16.95;100.00
53270;BME280;39159;45.634;9.420;2023-08-30T05:44:26;97796.91;;;16.98;100.00
53270;BME280;39159;45.634;9.420;2023-08-30T05:46:51;97803.66;;;17.04;100.00
53270;BME280;39159;45.634;9.420;2023-08-30T05:49:17;97806.88;;;17.13;100.00
53270;BME280;39159;45.634;9.420;2023-08-30T05:51:42;97811.25;;;17.14;100.00
53270;BME280;39159;45.634;9.420;2023-08-30T05:54:08;97811.25;;;17.14;100.00
53270;BME280;39159;45.634;9.420;2023-08-30T05:56:33;97810.59;;;17.32;100.00
53270;BME280;39159;45.634;9.420;2023-08-30T05:58:58;97804.75;;;17.37;100.00
53270;BME280;39159;45.634;9.420;2023-08-30T06:01:24;97810.69;;;17.39;100.00
53270;BME280;39159;45.634;9.420;2023-08-30T06:03:50;97815.78;;;17.37;100.00
53270;BME280;39159;45.634;9.420;2023-08-30T06:06:16;97805.91;;;17.36;100.00
53270;BME280;39159;45.634;9.420;2023-08-30T06:08:42;97805.47;;;17.30;100.00
53270;BME280;39159;45.634;9.420;2023-08-30T06:11:07;97804.69;;;17.30;100.00
53270;BME280;39159;45.634;9.420;2023-08-30T06:13:33;97809.44;;;17.33;100.00
53270;BME280;39159;45.634;9.420;2023-08-30T06:15:58;97813.41;;;17.35;100.00
53270;BME280;39159;45.634;9.420;2023-08-30T06:18:24;97806.78;;;17.47;100.00
53270;BME280;39159;45.634;9.420;2023-08-30T06:20:49;97808.53;;;17.66;100.00
53270;BME280;39159;45.634;9.420;2023-08-30T06:23:18;97820.50;;;17.85;100.00
53270;BME280;39159;45.634;9.420;2023-08-30T06:25:52;97820.16;;;17.93;100.00
53270;BME280;39159;45.634;9.420;2023-08-30T06:28:18;97828.16;;;18.09;100.00
53270;BME280;39159;45.634;9.420;2023-08-30T06:30:43;97828.22;;;18.20;100.00
53270;BME280;39159;45.634;9.420;2023-08-30T06:33:08;97830.28;;;18.37;100.00
53270;BME280;39159;45.634;9.420;2023-08-30T06:35:37;97826.81;;;18.55;100.00
53270;BME280;39159;45.634;9.420;2023-08-30T06:38:04;97842.25;;;18.74;100.00
53270;BME280;39159;45.634;9.420;2023-08-30T06:40:30;97839.97;;;18.87;100.00
53270;BME280;39159;45.634;9.420;2023-08-30T06:42:55;97839.59;;;18.95;100.00
53270;BME280;39159;45.634;9.420;2023-08-30T06:45:22;97836.47;;;19.11;100.00
53270;BME280;39159;45.634;9.420;2023-08-30T06:47:48;97832.19;;;19.28;100.00
53270;BME280;39159;45.634;9.420;2023-08-30T06:50:14;97834.53;;;19.30;100.00
53270;BME280;39159;45.634;9.420;2023-08-30T06:52:39;97837.72;;;19.39;100.00
53270;BME280;39159;45.634;9.420;2023-08-30T06:55:05;97840.09;;;19.51;100.00
53270;BME280;39159;45.634;9.420;2023-08-30T06:57:30;97844.84;;;19.54;100.00
53270;BME280;39159;45.634;9.420;2023-08-30T06:59:56;97841.31;;;19.75;100.00
53270;BME280;39159;45.634;9.420;2023-08-30T07:02:22;97835.75;;;19.90;98.88
53270;BME280;39159;45.634;9.420;2023-08-30T07:04:48;97845.63;;;20.08;99.20
53270;BME280;39159;45.634;9.420;2023-08-30T07:07:13;97839.66;;;20.24;97.08
53270;BME280;39159;45.634;9.420;2023-08-30T07:09:39;97847.13;;;20.42;97.22
53270;BME280;39159;45.634;9.420;2023-08-30T07:12:05;97849.91;;;20.45;94.81
53270;BME280;39159;45.634;9.420;2023-08-30T07:14:31;97854.63;;;20.45;93.20
53270;BME280;39159;45.634;9.420;2023-08-30T07:16:56;97857.03;;;20.39;94.42
53270;BME280;39159;45.634;9.420;2023-08-30T07:19:22;97859.00;;;20.46;93.60
53270;BME280;39159;45.634;9.420;2023-08-30T07:21:47;97860.63;;;20.22;95.28
53270;BME280;39159;45.634;9.420;2023-08-30T07:24:13;97860.25;;;20.20;95.23
53270;BME280;39159;45.634;9.420;2023-08-30T07:26:38;97861.75;;;20.42;93.71
53270;BME280;39159;45.634;9.420;2023-08-30T07:29:04;97864.13;;;20.51;91.45
53270;BME280;39159;45.634;9.420;2023-08-30T07:31:33;97875.22;;;20.58;93.67
53270;BME280;39159;45.634;9.420;2023-08-30T07:33:58;97870.81;;;20.75;92.71
53270;BME280;39159;45.634;9.420;2023-08-30T07:36:28;97875.13;;;20.76;91.72
53270;BME280;39159;45.634;9.420;2023-08-30T07:38:53;97871.94;;;20.85;89.96
53270;BME280;39159;45.634;9.420;2023-08-30T07:41:19;97872.25;;;21.05;87.07
53270;BME280;39159;45.634;9.420;2023-08-30T07:43:44;97883.56;;;21.36;82.45
53270;BME280;39159;45.634;9.420;2023-08-30T07:46:10;97884.34;;;21.40;82.15
53270;BME280;39159;45.634;9.420;2023-08-30T07:48:35;97889.41;;;21.52;80.75
53270;BME280;39159;45.634;9.420;2023-08-30T07:51:01;97884.09;;;21.79;77.92
53270;BME280;39159;45.634;9.420;2023-08-30T07:53:26;97890.66;;;22.00;76.06
53270;BME280;39159;45.634;9.420;2023-08-30T07:55:52;97901.75;;;22.03;77.12
53270;BME280;39159;45.634;9.420;2023-08-30T07:58:17;97898.81;;;22.18;74.98
53270;BME280;39159;45.634;9.420;2023-08-30T08:00:43;97897.63;;;22.19;73.13
53270;BME280;39159;45.634;9.420;2023-08-30T08:03:08;97910.06;;;22.48;70.99
53270;BME280;39159;45.634;9.420;2023-08-30T08:05:35;97914.13;;;21.91;72.15
53270;BME280;39159;45.634;9.420;2023-08-30T08:08:01;97903.75;;;22.44;71.10
53270;BME280;39159;45.634;9.420;2023-08-30T08:10:31;97903.97;;;22.61;70.76
53270;BME280;39159;45.634;9.420;2023-08-30T08:12:56;97909.13;;;22.96;67.39
53270;BME280;39159;45.634;9.420;2023-08-30T08:15:22;97916.94;;;23.40;66.49
53270;BME280;39159;45.634;9.420;2023-08-30T08:17:47;97913.56;;;23.52;66.23
53270;BME280;39159;45.634;9.420;2023-08-30T08:20:13;97913.91;;;23.57;67.23
53270;BME280;39159;45.634;9.420;2023-08-30T08:22:39;97912.97;;;23.95;64.10
53270;BME280;39159;45.634;9.420;2023-08-30T08:25:04;97924.19;;;24.15;62.79
53270;BME280;39159;45.634;9.420;2023-08-30T08:27:30;97919.94;;;24.07;63.09
53270;BME280;39159;45.634;9.420;2023-08-30T08:29:55;97926.81;;;23.98;60.35
53270;BME280;39159;45.634;9.420;2023-08-30T08:32:21;97926.38;;;23.76;63.37
53270;BME280;39159;45.634;9.420;2023-08-30T08:34:46;97932.38;;;23.75;63.06
53270;BME280;39159;45.634;9.420;2023-08-30T08:37:11;97935.59;;;23.43;64.87
53270;BME280;39159;45.634;9.420;2023-08-30T08:39:37;97933.31;;;23.34;64.22
53270;BME280;39159;45.634;9.420;2023-08-30T08:42:03;97935.50;;;22.85;65.04
53270;BME280;39159;45.634;9.420;2023-08-30T08:44:31;97939.63;;;22.69;67.13
53270;BME280;39159;45.634;9.420;2023-08-30T08:46:58;97938.94;;;23.00;65.53
53270;BME280;39159;45.634;9.420;2023-08-30T08:49:24;97940.75;;;22.79;68.68
53270;BME280;39159;45.634;9.420;2023-08-30T08:51:53;97935.31;;;22.65;68.12
53270;BME280;39159;45.634;9.420;2023-08-30T08:54:19;97931.78;;;22.61;69.84
53270;BME280;39159;45.634;9.420;2023-08-30T08:56:45;97934.38;;;22.79;69.12
53270;BME280;39159;45.634;9.420;2023-08-30T08:59:11;97935.00;;;22.93;71.45
53270;BME280;39159;45.634;9.420;2023-08-30T09:01:38;97945.00;;;22.87;67.78
53270;BME280;39159;45.634;9.420;2023-08-30T09:04:10;97941.03;;;22.88;68.26
53270;BME280;39159;45.634;9.420;2023-08-30T09:06:36;97943.03;;;22.88;67.01
53270;BME280;39159;45.634;9.420;2023-08-30T09:09:03;97946.81;;;23.05;65.40
53270;BME280;39159;45.634;9.420;2023-08-30T09:11:33;97952.03;;;22.99;65.07
53270;BME280;39159;45.634;9.420;2023-08-30T09:13:59;97949.13;;;23.10;65.06
53270;BME280;39159;45.634;9.420;2023-08-30T09:16:24;97951.19;;;23.36;64.71
53270;BME280;39159;45.634;9.420;2023-08-30T09:19:02;97953.91;;;23.40;63.94
53270;BME280;39159;45.634;9.420;2023-08-30T09:21:28;97949.28;;;23.30;62.56
53270;BME280;39159;45.634;9.420;2023-08-30T09:24:07;97950.63;;;23.49;64.62
53270;BME280;39159;45.634;9.420;2023-08-30T09:26:34;97955.97;;;23.63;64.09
53270;BME280;39159;45.634;9.420;2023-08-30T09:29:06;97957.63;;;23.61;61.19
53270;BME280;39159;45.634;9.420;2023-08-30T09:31:35;97954.59;;;23.78;60.96
53270;BME280;39159;45.634;9.420;2023-08-30T09:34:01;97966.72;;;23.92;60.08
53270;BME280;39159;45.634;9.420;2023-08-30T09:36:36;97959.56;;;24.18;58.85
53270;BME280;39159;45.634;9.420;2023-08-30T09:39:09;97952.47;;;24.13;58.05
53270;BME280;39159;45.634;9.420;2023-08-30T09:41:44;97947.91;;;23.99;58.06
53270;BME280;39159;45.634;9.420;2023-08-30T09:46:45;97942.25;;;24.30;58.33
53270;BME280;39159;45.634;9.420;2023-08-30T09:49:12;97939.13;;;24.01;57.92
53270;BME280;39159;45.634;9.420;2023-08-30T09:51:39;97937.81;;;24.33;59.21
53270;BME280;39159;45.634;9.420;2023-08-30T09:54:13;97940.56;;;23.86;59.48
53270;BME280;39159;45.634;9.420;2023-08-30T09:56:39;97943.19;;;24.20;58.21
53270;BME280;39159;45.634;9.420;2023-08-30T09:59:06;97938.53;;;24.13;56.52
53270;BME280;39159;45.634;9.420;2023-08-30T10:01:32;97941.28;;;23.90;55.96
53270;BME280;39159;45.634;9.420;2023-08-30T10:03:58;97943.19;;;24.20;55.99
53270;BME280;39159;45.634;9.420;2023-08-30T10:06:25;97944.22;;;24.30;56.64
53270;BME280;39159;45.634;9.420;2023-08-30T10:08:52;97939.91;;;24.72;54.30
53270;BME280;39159;45.634;9.420;2023-08-30T10:11:19;97933.38;;;24.99;55.57
53270;BME280;39159;45.634;9.420;2023-08-30T10:13:47;97938.63;;;25.17;51.76
53270;BME280;39159;45.634;9.420;2023-08-30T10:16:20;97952.69;;;24.70;51.03
53270;BME280;39159;45.634;9.420;2023-08-30T10:18:52;97943.50;;;24.49;52.71
53270;BME280;39159;45.634;9.420;2023-08-30T10:21:19;97945.75;;;24.11;52.96
53270;BME280;39159;45.634;9.420;2023-08-30T10:23:47;97947.59;;;23.94;55.44
53270;BME280;39159;45.634;9.420;2023-08-30T10:26:16;97939.03;;;24.08;55.02
53270;BME280;39159;45.634;9.420;2023-08-30T10:28:42;97940.22;;;24.54;55.03
53270;BME280;39159;45.634;9.420;2023-08-30T10:31:08;97940.69;;;24.73;54.80
53270;BME280;39159;45.634;9.420;2023-08-30T10:33:47;97940.03;;;25.05;54.12
53270;BME280;39159;45.634;9.420;2023-08-30T10:36:20;97942.94;;;25.01;50.67
53270;BME280;39159;45.634;9.420;2023-08-30T10:38:50;97950.94;;;24.99;51.07
53270;BME280;39159;45.634;9.420;2023-08-30T10:41:20;97942.41;;;25.07;50.67
53270;BME280;39159;45.634;9.420;2023-08-30T10:43:50;97932.34;;;24.93;51.13
53270;BME280;39159;45.634;9.420;2023-08-30T10:46:16;97924.88;;;25.46;49.35
53270;BME280;39159;45.634;9.420;2023-08-30T10:48:42;97921.88;;;25.37;48.71
53270;BME280;39159;45.634;9.420;2023-08-30T10:51:34;97925.56;;;25.50;49.66
53270;BME280;39159;45.634;9.420;2023-08-30T10:54:01;97932.69;;;25.15;48.04
53270;BME280;39159;45.634;9.420;2023-08-30T10:56:30;97928.31;;;25.70;49.92
53270;BME280;39159;45.634;9.420;2023-08-30T10:58:56;97922.47;;;26.30;45.80
53270;BME280;39159;45.634;9.420;2023-08-30T11:01:22;97926.41;;;26.16;44.31
53270;BME280;39159;45.634;9.420;2023-08-30T11:03:49;97918.03;;;25.83;46.37
53270;BME280;39159;45.634;9.420;2023-08-30T11:06:15;97924.81;;;25.82;44.88
53270;BME280;39159;45.634;9.420;2023-08-30T11:08:43;97918.03;;;26.16;44.69
53270;BME280;39159;45.634;9.420;2023-08-30T11:11:08;97924.81;;;26.32;43.58
53270;BME280;39159;45.634;9.420;2023-08-30T11:13:36;97916.63;;;26.24;42.66
53270;BME280;39159;45.634;9.420;2023-08-30T11:16:02;97918.41;;;26.02;43.63
53270;BME280;39159;45.634;9.420;2023-08-30T11:18:30;97919.16;;;26.19;40.25
53270;BME280;39159;45.634;9.420;2023-08-30T11:21:01;97922.56;;;26.26;38.60
53270;BME280;39159;45.634;9.420;2023-08-30T11:23:27;97918.06;;;26.45;37.09
53270;BME280;39159;45.634;9.420;2023-08-30T11:25:53;97914.53;;;26.29;35.10
53270;BME280;39159;45.634;9.420;2023-08-30T11:28:25;97914.38;;;26.19;35.50
53270;BME280;39159;45.634;9.420;2023-08-30T11:30:54;97910.75;;;26.19;42.79
53270;BME280;39159;45.634;9.420;2023-08-30T11:33:20;97919.00;;;25.93;44.03
53270;BME280;39159;45.634;9.420;2023-08-30T11:35:48;97916.59;;;26.41;44.44
53270;BME280;39159;45.634;9.420;2023-08-30T11:38:14;97915.53;;;26.51;44.30
53270;BME280;39159;45.634;9.420;2023-08-30T11:40:40;97906.22;;;26.41;46.32
53270;BME280;39159;45.634;9.420;2023-08-30T11:43:06;97908.00;;;26.64;46.14
53270;BME280;39159;45.634;9.420;2023-08-30T11:45:32;97896.47;;;26.62;43.48
53270;BME280;39159;45.634;9.420;2023-08-30T11:48:00;97906.75;;;26.65;43.19
53270;BME280;39159;45.634;9.420;2023-08-30T11:50:26;97897.28;;;26.46;43.67
53270;BME280;39159;45.634;9.420;2023-08-30T11:52:52;97902.16;;;26.42;43.02
53270;BME280;39159;45.634;9.420;2023-08-30T11:55:20;97902.38;;;26.19;45.00
53270;BME280;39159;45.634;9.420;2023-08-30T11:57:48;97901.03;;;26.56;45.07
53270;BME280;39159;45.634;9.420;2023-08-30T12:00:17;97902.59;;;26.41;45.18
53270;BME280;39159;45.634;9.420;2023-08-30T12:02:43;97894.75;;;26.36;44.59
53270;BME280;39159;45.634;9.420;2023-08-30T12:05:13;97893.47;;;26.70;45.05
53270;BME280;39159;45.634;9.420;2023-08-30T12:07:39;97891.34;;;26.74;45.68
53270;BME280;39159;45.634;9.420;2023-08-30T12:10:06;97887.56;;;26.80;45.12
53270;BME280;39159;45.634;9.420;2023-08-30T12:12:31;97898.72;;;27.09;45.17
53270;BME280;39159;45.634;9.420;2023-08-30T12:14:57;97901.94;;;27.24;43.53
53270;BME280;39159;45.634;9.420;2023-08-30T12:17:23;97892.28;;;27.25;43.41
53270;BME280;39159;45.634;9.420;2023-08-30T12:19:57;97899.91;;;27.25;40.50
53270;BME280;39159;45.634;9.420;2023-08-30T12:22:23;97897.38;;;26.72;41.16
53270;BME280;39159;45.634;9.420;2023-08-30T12:24:48;97893.13;;;26.67;42.18
53270;BME280;39159;45.634;9.420;2023-08-30T12:27:14;97886.78;;;26.80;39.92
53270;BME280;39159;45.634;9.420;2023-08-30T12:29:40;97892.09;;;26.91;40.86
53270;BME280;39159;45.634;9.420;2023-08-30T12:32:06;97887.53;;;26.67;42.17
53270;BME280;39159;45.634;9.420;2023-08-30T12:34:32;97885.31;;;26.75;40.86
53270;BME280;39159;45.634;9.420;2023-08-30T12:36:58;97881.25;;;26.47;41.16
53270;BME280;39159;45.634;9.420;2023-08-30T12:39:23;97884.69;;;26.38;43.00
53270;BME280;39159;45.634;9.420;2023-08-30T12:41:49;97891.44;;;26.70;42.90
53270;BME280;39159;45.634;9.420;2023-08-30T12:44:15;97890.13;;;26.29;42.91
53270;BME280;39159;45.634;9.420;2023-08-30T12:46:40;97884.16;;;25.98;41.73
53270;BME280;39159;45.634;9.420;2023-08-30T12:49:05;97892.22;;;26.25;40.62
53270;BME280;39159;45.634;9.420;2023-08-30T12:51:31;97893.44;;;26.40;41.57
53270;BME280;39159;45.634;9.420;2023-08-30T12:53:56;97889.09;;;26.23;42.68
53270;BME280;39159;45.634;9.420;2023-08-30T12:56:22;97892.84;;;26.33;43.06
53270;BME280;39159;45.634;9.420;2023-08-30T12:58:47;97887.00;;;26.27;42.73
53270;BME280;39159;45.634;9.420;2023-08-30T13:01:13;97894.22;;;26.41;43.55